KGYY/GYY METAR and TAF weather

Enter ICAO airport designator
Station Type Date Time Source
KGYY METAR 2021/07/30 22:45 UTC NOAA

KGYY 302245Z 36010KT 10SM BKN060 20/14 A3015


Station Type Date Time Source
KGYY Decoded METAR 2021/07/30 22:45 UTC NOAA

Gary Regional, IN, United States (KGYY) 41-37N 087-25W
Jul 30, 2021 - 06:45 PM EDT / 2021.07.30 2245 UTC
Wind: from the N (360 degrees) at 12 MPH (10 KT):0
Visibility: 10 mile(s):0
Sky conditions: mostly cloudy
Temperature: 68 F (20 C)
Dew Point: 57 F (14 C)
Relative Humidity: 68%
Pressure (altimeter): 30.15 in. Hg (1020 hPa)
ob: KGYY 302245Z 36010KT 10SM BKN060 20/14 A3015
cycle: 23

Station Type Date Time Source
KGYY TAF 2021/07/30 21:06 UTC NOAA

TAF
AMD KGYY 302103Z 3021/3118 01012KT P6SM SCT030 BKN200
TEMPO 3021/3023 BKN030
FM302300 03007KT P6SM BKN200
FM310300 VRB03KT P6SM BKN120
FM311200 23006KT P6SM SCT050 SCT250

Example: see airport list